QFA646 YPPH-YSSY
Flight info
| Callsign | QFA646 |
|---|---|
| Flight time | N/A |
| Altitude | 37000 |
| Route | PH H18 MUBID J21 BORLI H205 CULIN Y59 RIVET |
| Aircraft | A21N/M-SDE2E3FGHIRWXY/LB1 |
Departure
| Time | N/A |
|---|---|
| Airport | Perth International Airport (YPPH) |
Arrival
| Time | 2026-05-07 14:20 |
|---|---|
| Airport | Sydney Kingsford Smith International Airport (YSSY) |
| Time | Latitude | Longitude | Altitude | Speed | Heading |
|---|---|---|---|---|---|
| 2026-05-07 13:42 | -34.47814 | 147.53474 | 37270 ft | 492 kts | 103° |
| 2026-05-07 13:42 | -34.49029 | 147.61634 | 37263 ft | 492 kts | 103° |
| 2026-05-07 13:43 | -34.50241 | 147.69807 | 37268 ft | 493 kts | 103° |
| 2026-05-07 13:43 | -34.51448 | 147.78001 | 37265 ft | 493 kts | 103° |
| 2026-05-07 13:44 | -34.52622 | 147.86007 | 37263 ft | 493 kts | 102° |
| 2026-05-07 13:44 | -34.53784 | 147.93964 | 37284 ft | 493 kts | 103° |
| 2026-05-07 13:45 | -34.54941 | 148.01922 | 37258 ft | 495 kts | 103° |
| 2026-05-07 13:45 | -34.56061 | 148.09665 | 37253 ft | 496 kts | 103° |
| 2026-05-07 13:46 | -34.57218 | 148.17702 | 37251 ft | 496 kts | 102° |
| 2026-05-07 13:46 | -34.58311 | 148.25332 | 37255 ft | 497 kts | 103° |
| 2026-05-07 13:47 | -34.59465 | 148.33415 | 37249 ft | 500 kts | 103° |
| 2026-05-07 13:47 | -34.60638 | 148.41678 | 37246 ft | 501 kts | 103° |
| 2026-05-07 13:48 | -34.61821 | 148.50063 | 37258 ft | 501 kts | 103° |
| 2026-05-07 13:48 | -34.62993 | 148.58394 | 37243 ft | 504 kts | 103° |
| 2026-05-07 13:49 | -34.64166 | 148.66794 | 37233 ft | 505 kts | 103° |
| 2026-05-07 13:49 | -34.65334 | 148.75198 | 37226 ft | 505 kts | 103° |
| 2026-05-07 13:50 | -34.66499 | 148.83616 | 37232 ft | 506 kts | 102° |
| 2026-05-07 13:50 | -34.67660 | 148.92057 | 37243 ft | 507 kts | 102° |
| 2026-05-07 13:51 | -34.68620 | 148.99070 | 37222 ft | 507 kts | 102° |
| 2026-05-07 13:51 | -34.69771 | 149.07521 | 37225 ft | 507 kts | 102° |
| 2026-05-07 13:52 | -34.70920 | 149.15991 | 37221 ft | 509 kts | 102° |
| 2026-05-07 13:52 | -34.72065 | 149.24485 | 37223 ft | 508 kts | 101° |
| 2026-05-07 13:53 | -34.73174 | 149.32951 | 37210 ft | 507 kts | 97° |
| 2026-05-07 13:53 | -34.73224 | 149.37239 | 37215 ft | 508 kts | 84° |
| 2026-05-07 13:53 | -34.72554 | 149.41441 | 37212 ft | 506 kts | 69° |
| 2026-05-07 13:54 | -34.69708 | 149.49227 | 37211 ft | 504 kts | 60° |
| 2026-05-07 13:54 | -34.66418 | 149.56710 | 37209 ft | 505 kts | 58° |
| 2026-05-07 13:55 | -34.63048 | 149.64191 | 37211 ft | 504 kts | 58° |
| 2026-05-07 13:55 | -34.59731 | 149.71657 | 37195 ft | 501 kts | 59° |
| 2026-05-07 13:56 | -34.56441 | 149.79116 | 37196 ft | 501 kts | 59° |
| 2026-05-07 13:56 | -34.53162 | 149.86575 | 37187 ft | 501 kts | 59° |
| 2026-05-07 13:57 | -34.49878 | 149.94027 | 37193 ft | 501 kts | 59° |
| 2026-05-07 13:57 | -34.46580 | 150.01483 | 36721 ft | 501 kts | 59° |
| 2026-05-07 13:57 | -34.44928 | 150.05209 | 35921 ft | 503 kts | 59° |
| 2026-05-07 13:58 | -34.43267 | 150.08953 | 35142 ft | 505 kts | 59° |
| 2026-05-07 13:58 | -34.41598 | 150.12707 | 34439 ft | 506 kts | 60° |
| 2026-05-07 13:58 | -34.39925 | 150.16471 | 33648 ft | 507 kts | 60° |
| 2026-05-07 13:58 | -34.38246 | 150.20244 | 32697 ft | 512 kts | 61° |
| 2026-05-07 13:59 | -34.36546 | 150.24060 | 31637 ft | 519 kts | 61° |
| 2026-05-07 13:59 | -34.34821 | 150.27930 | 30631 ft | 525 kts | 62° |
| 2026-05-07 13:59 | -34.33073 | 150.31845 | 29558 ft | 530 kts | 62° |
| 2026-05-07 13:59 | -34.31321 | 150.35761 | 28618 ft | 530 kts | 62° |
| 2026-05-07 14:00 | -34.29587 | 150.39639 | 27647 ft | 531 kts | 62° |
| 2026-05-07 14:00 | -34.27804 | 150.43622 | 26707 ft | 532 kts | 62° |
| 2026-05-07 14:00 | -34.26070 | 150.47502 | 25960 ft | 530 kts | 62° |
| 2026-05-07 14:00 | -34.24323 | 150.51409 | 25235 ft | 526 kts | 62° |
| 2026-05-07 14:01 | -34.22591 | 150.55275 | 24586 ft | 521 kts | 62° |
| 2026-05-07 14:01 | -34.20873 | 150.59109 | 23964 ft | 516 kts | 62° |
| 2026-05-07 14:01 | -34.19172 | 150.62899 | 23234 ft | 511 kts | 62° |
| 2026-05-07 14:01 | -34.17492 | 150.66641 | 22572 ft | 504 kts | 63° |
| 2026-05-07 14:02 | -34.15823 | 150.70352 | 21622 ft | 504 kts | 63° |
| 2026-05-07 14:02 | -34.14137 | 150.74096 | 20417 ft | 509 kts | 63° |
| 2026-05-07 14:02 | -34.12438 | 150.77867 | 19250 ft | 513 kts | 63° |
| 2026-05-07 14:02 | -34.10749 | 150.81609 | 18864 ft | 499 kts | 63° |
| 2026-05-07 14:03 | -34.09113 | 150.85220 | 18673 ft | 480 kts | 63° |
| 2026-05-07 14:03 | -34.07528 | 150.88703 | 18527 ft | 470 kts | 63° |
| 2026-05-07 14:03 | -34.07324 | 150.89152 | 18517 ft | 470 kts | 63° |
| 2026-05-07 14:03 | -34.06331 | 150.91333 | 18446 ft | 471 kts | 63° |
| 2026-05-07 14:04 | -34.04751 | 150.94803 | 18344 ft | 471 kts | 63° |
| 2026-05-07 14:04 | -34.03318 | 150.98278 | 18054 ft | 467 kts | 73° |
| 2026-05-07 14:04 | -34.02779 | 151.02059 | 17421 ft | 449 kts | 99° |
| 2026-05-07 14:04 | -34.03614 | 151.05585 | 15758 ft | 438 kts | 127° |
| 2026-05-07 14:05 | -34.05376 | 151.08488 | 15660 ft | 410 kts | 138° |
| 2026-05-07 14:05 | -34.07398 | 151.10705 | 15707 ft | 379 kts | 158° |
| 2026-05-07 14:05 | -34.09845 | 151.11471 | 14885 ft | 361 kts | 183° |
| 2026-05-07 14:05 | -34.12366 | 151.11447 | 14123 ft | 359 kts | 184° |
| 2026-05-07 14:06 | -34.14850 | 151.11412 | 13415 ft | 354 kts | 184° |
| 2026-05-07 14:06 | -34.17297 | 151.11379 | 12716 ft | 350 kts | 184° |
| 2026-05-07 14:06 | -34.19720 | 151.11349 | 12044 ft | 346 kts | 184° |
| 2026-05-07 14:06 | -34.22121 | 151.11286 | 11375 ft | 344 kts | 182° |
| 2026-05-07 14:07 | -34.24505 | 151.11492 | 10761 ft | 343 kts | 177° |
| 2026-05-07 14:07 | -34.26823 | 151.11902 | 10165 ft | 339 kts | 174° |
| 2026-05-07 14:07 | -34.29155 | 151.12413 | 9509 ft | 334 kts | 173° |
| 2026-05-07 14:07 | -34.31385 | 151.12940 | 8857 ft | 327 kts | 174° |
| 2026-05-07 14:08 | -34.33621 | 151.13156 | 8223 ft | 318 kts | 185° |
| 2026-05-07 14:08 | -34.35775 | 151.12770 | 7591 ft | 309 kts | 198° |
| 2026-05-07 14:08 | -34.37702 | 151.11710 | 6968 ft | 303 kts | 213° |
| 2026-05-07 14:08 | -34.39332 | 151.10120 | 6357 ft | 298 kts | 221° |
| 2026-05-07 14:09 | -34.40834 | 151.08417 | 5710 ft | 294 kts | 223° |
| 2026-05-07 14:09 | -34.42359 | 151.06797 | 5067 ft | 289 kts | 211° |
| 2026-05-07 14:09 | -34.44225 | 151.05985 | 4441 ft | 286 kts | 189° |
| 2026-05-07 14:09 | -34.46202 | 151.05925 | 3901 ft | 282 kts | 178° |
| 2026-05-07 14:10 | -34.48029 | 151.06682 | 3685 ft | 277 kts | 152° |
| 2026-05-07 14:10 | -34.49363 | 151.08301 | 3665 ft | 271 kts | 128° |
| 2026-05-07 14:10 | -34.49918 | 151.10452 | 3654 ft | 273 kts | 99° |
| 2026-05-07 14:10 | -34.49747 | 151.12776 | 3652 ft | 281 kts | 85° |
| 2026-05-07 14:11 | -34.49143 | 151.15064 | 3644 ft | 291 kts | 64° |
| 2026-05-07 14:11 | -34.47919 | 151.17039 | 3658 ft | 295 kts | 50° |
| 2026-05-07 14:11 | -34.46491 | 151.18832 | 3651 ft | 296 kts | 44° |
| 2026-05-07 14:11 | -34.44814 | 151.20226 | 3653 ft | 297 kts | 26° |
| 2026-05-07 14:12 | -34.42940 | 151.21268 | 3654 ft | 296 kts | 22° |
| 2026-05-07 14:12 | -34.41034 | 151.22203 | 3639 ft | 296 kts | 17° |
| 2026-05-07 14:12 | -34.39058 | 151.22922 | 3502 ft | 297 kts | 13° |
| 2026-05-07 14:12 | -34.37061 | 151.23529 | 3339 ft | 295 kts | 11° |
| 2026-05-07 14:13 | -34.35051 | 151.24016 | 3176 ft | 294 kts | 7° |
| 2026-05-07 14:13 | -34.33045 | 151.24322 | 3102 ft | 287 kts | 359° |
| 2026-05-07 14:13 | -34.31047 | 151.24368 | 3331 ft | 288 kts | 356° |
| 2026-05-07 14:13 | -34.29037 | 151.24362 | 3410 ft | 288 kts | 356° |
| 2026-05-07 14:14 | -34.27042 | 151.24347 | 3105 ft | 282 kts | 356° |
| 2026-05-07 14:14 | -34.25131 | 151.24330 | 3023 ft | 266 kts | 356° |
| 2026-05-07 14:14 | -34.23335 | 151.24324 | 2907 ft | 250 kts | 356° |
| 2026-05-07 14:14 | -34.21641 | 151.24338 | 2749 ft | 238 kts | 356° |
| 2026-05-07 14:15 | -34.20022 | 151.24298 | 2693 ft | 229 kts | 346° |
| 2026-05-07 14:15 | -34.18463 | 151.23994 | 2689 ft | 226 kts | 343° |
| 2026-05-07 14:15 | -34.16936 | 151.23634 | 2693 ft | 226 kts | 341° |
| 2026-05-07 14:15 | -34.15422 | 151.23251 | 2672 ft | 213 kts | 341° |
| 2026-05-07 14:16 | -34.13993 | 151.22847 | 2725 ft | 219 kts | 335° |
| 2026-05-07 14:16 | -34.12538 | 151.22307 | 2694 ft | 231 kts | 338° |
| 2026-05-07 14:16 | -34.10974 | 151.21865 | 2704 ft | 235 kts | 341° |
| 2026-05-07 14:16 | -34.09375 | 151.21455 | 2699 ft | 234 kts | 342° |
| 2026-05-07 14:17 | -34.07827 | 151.21050 | 2506 ft | 217 kts | 340° |
| 2026-05-07 14:17 | -34.06418 | 151.20676 | 2192 ft | 199 kts | 339° |
| 2026-05-07 14:17 | -34.05109 | 151.20333 | 1871 ft | 185 kts | 338° |
| 2026-05-07 14:17 | -34.03906 | 151.20020 | 1620 ft | 169 kts | 338° |
| 2026-05-07 14:18 | -34.02802 | 151.19733 | 1384 ft | 154 kts | 336° |
| 2026-05-07 14:18 | -34.01784 | 151.19461 | 1133 ft | 148 kts | 338° |
| 2026-05-07 14:18 | -34.00774 | 151.19192 | 738 ft | 145 kts | 338° |
| 2026-05-07 14:18 | -33.99794 | 151.18932 | 637 ft | 151 kts | 338° |
| 2026-05-07 14:19 | -33.98725 | 151.18665 | 541 ft | 160 kts | 344° |
| 2026-05-07 14:19 | -33.97639 | 151.18371 | 269 ft | 161 kts | 344° |
| 2026-05-07 14:19 | -33.96551 | 151.18098 | 52 ft | 156 kts | 342° |
| 2026-05-07 14:19 | -33.95706 | 151.17866 | 32 ft | 76 kts | 350° |
| 2026-05-07 14:20 | -33.95281 | 151.17760 | 31 ft | 55 kts | 348° |
| 2026-05-07 14:20 | -33.94918 | 151.17671 | 32 ft | 51 kts | 349° |
| 2026-05-07 14:20 | -33.94605 | 151.17652 | 32 ft | 43 kts | 11° |
| 2026-05-07 14:20 | -33.94378 | 151.17731 | 33 ft | 25 kts | 13° |
| 2026-05-07 14:21 | -33.94287 | 151.17856 | 33 ft | 19 kts | 31° |
| 2026-05-07 14:21 | -33.94161 | 151.17846 | 33 ft | 18 kts | 346° |
| 2026-05-07 14:21 | -33.94035 | 151.17812 | 32 ft | 19 kts | 348° |
| 2026-05-07 14:21 | -33.93908 | 151.17780 | 32 ft | 18 kts | 348° |
| 2026-05-07 14:22 | -33.93784 | 151.17762 | 32 ft | 17 kts | 359° |
| 2026-05-07 14:22 | -33.93697 | 151.17677 | 33 ft | 17 kts | 311° |
| 2026-05-07 14:22 | -33.93601 | 151.17615 | 33 ft | 16 kts | 347° |
| 2026-05-07 14:22 | -33.93553 | 151.17601 | 33 ft | 0 kts | 347° |
| 2026-05-07 14:23 | -33.93526 | 151.17594 | 33 ft | 5 kts | 349° |
| 2026-05-07 14:23 | -33.93441 | 151.17589 | 33 ft | 19 kts | 7° |
| 2026-05-07 14:23 | -33.93339 | 151.17574 | 33 ft | 9 kts | 349° |
| 2026-05-07 14:23 | -33.93282 | 151.17574 | 33 ft | 7 kts | 24° |
| 2026-05-07 14:24 | -33.93267 | 151.17623 | 33 ft | 6 kts | 91° |
| 2026-05-07 14:24 | -33.93263 | 151.17675 | 33 ft | 7 kts | 84° |
| 2026-05-07 14:24 | -33.93261 | 151.17701 | 33 ft | 0 kts | 85° |
| 2026-05-07 14:26 | -33.93261 | 151.17700 | 33 ft | 0 kts | 85° |